Repubbli Del Brasile — IBZB — position and weather

sailwx.info

Track history (hours):
 
Tides and Currents Weather Stations Pressure Air Temp Water Temp Dewpoint Dewpoint Depression Visibility Wind Speed Wind Dir Waves Ship Positions

Repubbli Del Brasile

Last reported at 2015-Jun-25 15:05 UTC. Time now 2015-Jul-07 19:45 UTC.
Position N 26°55' W 014°42'.
Warning: this ship's position is 12 days out of date.

Length 209 m; draft 9.5 m.

Type: Ship (hazmat cat A). MMSI: 247310000.

Date/timePositionNaut miles runAvg speedWind from/ knotsBaromVisibWave heightAir tempDewpointWater temp
2015-Jun-25 15:05N 26°55' W 014°42'1017.8
2015-Jun-25 14:33N 27°03' W 014°36'2017.4
2015-Jun-25 13:23N 27°20' W 014°23'1517.6
2015-Jun-25 12:33N 27°32' W 014°14'1817.9
2015-Jun-25 11:33N 27°47' W 014°04'1818.0
2015-Jun-25 10:33N 28°02' W 013°52'1918.0
2015-Jun-25 09:31N 28°18' W 013°42'1817.5
2015-Jun-25 08:31N 28°34' W 013°33'1717.8
2015-Jun-25 07:33N 28°49' W 013°24'2017.5
2015-Jun-25 06:24N 29°08' W 013°14'3217.5
2015-Jun-25 04:33N 29°32' W 012°50'  
2015-Jun-21 22:09N 35°58' W 005°37'711.4
2015-Jun-21 21:32N 35°60' W 005°28'1212.3
2015-Jun-21 20:33N 36°03' W 005°14'11914.1
2015-Jun-21 12:08N 36°32' W 002°51'915.6
2015-Jun-21 11:33N 36°35' W 002°40'1515.0
2015-Jun-21 10:33N 36°46' W 002°29'4 3.4
2015-Jun-21 09:32N 36°50' W 002°28'0 0.0
2015-Jun-21 08:31N 36°50' W 002°28'0 0.0
2015-Jun-21 07:31N 36°50' W 002°28'0 0.0
2015-Jun-21 06:33N 36°50' W 002°28'0 0.0
2015-Jun-21 05:33N 36°50' W 002°28'45 6.3
2015-Jun-20 22:27N 36°33' W 001°37'1617.5
2015-Jun-20 21:33N 36°37' W 001°18'1716.9
2015-Jun-20 20:34N 36°41' W 000°58'1717.0
2015-Jun-20 19:33N 36°46' W 000°37'1716.7
2015-Jun-20 18:33N 36°50' W 000°17'1717.0
2015-Jun-20 17:34N 36°54' E 000°03'1616.0
2015-Jun-20 16:33N 36°59' E 000°23'1615.8
2015-Jun-20 15:33N 37°03' E 000°42'1616.2
2015-Jun-20 14:33N 37°07' E 001°01'1717.3
2015-Jun-20 13:33N 37°12' E 001°23'1817.3
2015-Jun-20 12:29N 37°17' E 001°45'7216.9
2015-Jun-20 08:13N 37°36' E 003°12'1115.6
2015-Jun-20 07:33N 37°39' E 003°25'25215.7
2015-Jun-19 15:33N 38°45' E 008°34'1615.5
2015-Jun-19 14:32N 38°49' E 008°53'1515.6
2015-Jun-19 13:33N 38°53' E 009°12'1616.1
2015-Jun-19 12:33N 38°57' E 009°32'21716.6
2015-Jun-18 23:31N 40°20' E 013°52'1616.7
2015-Jun-18 22:32N 40°26' E 014°12'1716.5
2015-Jun-18 21:31N 40°32' E 014°33'12 0.6
2015-Jun-18 00:33N 40°31' E 014°18'1514.9
2015-Jun-17 23:33N 40°32' E 013°58'1615.9
2015-Jun-17 22:33N 40°37' E 013°38'21715.1
2015-Jun-17 08:12N 43°03' E 010°02'1015.8
2015-Jun-17 07:33N 43°13' E 010°06'1615.8
2015-Jun-17 06:34N 43°28' E 010°11'8 8.3
2015-Jun-17 05:33N 43°34' E 010°18'0 0.1
2015-Jun-17 04:33N 43°34' E 010°18'0 0.0
2015-Jun-17 03:33N 43°34' E 010°18'0 0.0
2015-Jun-17 02:32N 43°34' E 010°18'0 0.0
2015-Jun-17 01:33N 43°34' E 010°18'0 0.0
2015-Jun-17 00:31N 43°34' E 010°18'0 0.0
2015-Jun-16 23:32N 43°34' E 010°18'0 0.0
2015-Jun-16 22:31N 43°34' E 010°18'0 0.0
2015-Jun-16 21:31N 43°34' E 010°18'0 0.0
2015-Jun-16 20:27N 43°34' E 010°18'0 0.0
2015-Jun-16 19:33N 43°34' E 010°18'0 0.0
2015-Jun-16 18:33N 43°34' E 010°18'0 0.0
2015-Jun-16 17:30N 43°34' E 010°18'4 4.1
2015-Jun-16 16:33N 43°31' E 010°15'1414.5
2015-Jun-16 15:33N 43°31' E 009°55'1918.7
2015-Jun-16 14:33N 43°43' E 009°35'1918.7
2015-Jun-16 13:33N 43°54' E 009°15'1818.1
2015-Jun-16 12:33N 44°11' E 009°04'1514.7
2015-Jun-16 11:34N 44°24' E 008°55'1 1.1
2015-Jun-16 10:31N 44°24' E 008°53'0 0.0
2015-Jun-16 09:33N 44°24' E 008°53'0 0.1
2015-Jun-16 08:33N 44°24' E 008°53'0 0.0
2015-Jun-16 07:29N 44°24' E 008°53'0 0.0
2015-Jun-16 06:31N 44°24' E 008°53'0 0.0
2015-Jun-16 05:33N 44°24' E 008°53'0 0.0
2015-Jun-16 04:33N 44°24' E 008°53'0 0.0
2015-Jun-16 03:33N 44°24' E 008°53'0 0.0
2015-Jun-16 02:34N 44°24' E 008°53'0 0.0
2015-Jun-16 01:32N 44°24' E 008°53'0 0.0
2015-Jun-16 00:32N 44°24' E 008°53'0 0.0
2015-Jun-15 23:31N 44°24' E 008°53'0 0.0
2015-Jun-15 22:31N 44°24' E 008°53'0 0.0
2015-Jun-15 21:31N 44°24' E 008°53'0 0.0
2015-Jun-15 20:33N 44°24' E 008°53'0 0.0
2015-Jun-15 19:33N 44°24' E 008°53'0 0.0
2015-Jun-15 18:29N 44°24' E 008°53'0 0.0
2015-Jun-15 17:28N 44°24' E 008°53'0 0.0
2015-Jun-15 16:28N 44°24' E 008°53'0 0.0
2015-Jun-15 15:32N 44°24' E 008°53'  
Track history (hours):
 
Tides and Currents Weather Stations Pressure Air Temp Water Temp Dewpoint Dewpoint Depression Visibility Wind Speed Wind Dir Waves Ship Positions

Repubbli Del Brasile

Last reported at 2015-Jun-25 15:05 UTC. Time now 2015-Jul-07 19:45 UTC.
Position N 26°55' W 014°42'.
Warning: this ship's position is 12 days out of date.

Length 209 m; draft 9.5 m.

Type: Ship (hazmat cat A). MMSI: 247310000.

Date/timePositionNaut miles runAvg speedWind from/ knotsBaromVisibWave heightAir tempDewpointWater temp
2015-Jun-25 15:05N 26°55' W 014°42'1017.8
2015-Jun-25 14:33N 27°03' W 014°36'2017.4
2015-Jun-25 13:23N 27°20' W 014°23'1517.6
2015-Jun-25 12:33N 27°32' W 014°14'1817.9
2015-Jun-25 11:33N 27°47' W 014°04'1818.0
2015-Jun-25 10:33N 28°02' W 013°52'1918.0
2015-Jun-25 09:31N 28°18' W 013°42'1817.5
2015-Jun-25 08:31N 28°34' W 013°33'1717.8
2015-Jun-25 07:33N 28°49' W 013°24'2017.5
2015-Jun-25 06:24N 29°08' W 013°14'3217.5
2015-Jun-25 04:33N 29°32' W 012°50'  
2015-Jun-21 22:09N 35°58' W 005°37'711.4
2015-Jun-21 21:32N 35°60' W 005°28'1212.3
2015-Jun-21 20:33N 36°03' W 005°14'11914.1
2015-Jun-21 12:08N 36°32' W 002°51'915.6
2015-Jun-21 11:33N 36°35' W 002°40'1515.0
2015-Jun-21 10:33N 36°46' W 002°29'4 3.4
2015-Jun-21 09:32N 36°50' W 002°28'0 0.0
2015-Jun-21 08:31N 36°50' W 002°28'0 0.0
2015-Jun-21 07:31N 36°50' W 002°28'0 0.0
2015-Jun-21 06:33N 36°50' W 002°28'0 0.0
2015-Jun-21 05:33N 36°50' W 002°28'45 6.3
2015-Jun-20 22:27N 36°33' W 001°37'1617.5
2015-Jun-20 21:33N 36°37' W 001°18'1716.9
2015-Jun-20 20:34N 36°41' W 000°58'1717.0
2015-Jun-20 19:33N 36°46' W 000°37'1716.7
2015-Jun-20 18:33N 36°50' W 000°17'1717.0
2015-Jun-20 17:34N 36°54' E 000°03'1616.0
2015-Jun-20 16:33N 36°59' E 000°23'1615.8
2015-Jun-20 15:33N 37°03' E 000°42'1616.2
2015-Jun-20 14:33N 37°07' E 001°01'1717.3
2015-Jun-20 13:33N 37°12' E 001°23'1817.3
2015-Jun-20 12:29N 37°17' E 001°45'7216.9
2015-Jun-20 08:13N 37°36' E 003°12'1115.6
2015-Jun-20 07:33N 37°39' E 003°25'25215.7
2015-Jun-19 15:33N 38°45' E 008°34'1615.5
2015-Jun-19 14:32N 38°49' E 008°53'1515.6
2015-Jun-19 13:33N 38°53' E 009°12'1616.1
2015-Jun-19 12:33N 38°57' E 009°32'21716.6
2015-Jun-18 23:31N 40°20' E 013°52'1616.7
2015-Jun-18 22:32N 40°26' E 014°12'1716.5
2015-Jun-18 21:31N 40°32' E 014°33'12 0.6
2015-Jun-18 00:33N 40°31' E 014°18'1514.9
2015-Jun-17 23:33N 40°32' E 013°58'1615.9
2015-Jun-17 22:33N 40°37' E 013°38'21715.1
2015-Jun-17 08:12N 43°03' E 010°02'1015.8
2015-Jun-17 07:33N 43°13' E 010°06'1615.8
2015-Jun-17 06:34N 43°28' E 010°11'8 8.3
2015-Jun-17 05:33N 43°34' E 010°18'0 0.1
2015-Jun-17 04:33N 43°34' E 010°18'0 0.0
2015-Jun-17 03:33N 43°34' E 010°18'0 0.0
2015-Jun-17 02:32N 43°34' E 010°18'0 0.0
2015-Jun-17 01:33N 43°34' E 010°18'0 0.0
2015-Jun-17 00:31N 43°34' E 010°18'0 0.0
2015-Jun-16 23:32N 43°34' E 010°18'0 0.0
2015-Jun-16 22:31N 43°34' E 010°18'0 0.0
2015-Jun-16 21:31N 43°34' E 010°18'0 0.0
2015-Jun-16 20:27N 43°34' E 010°18'0 0.0
2015-Jun-16 19:33N 43°34' E 010°18'0 0.0
2015-Jun-16 18:33N 43°34' E 010°18'0 0.0
2015-Jun-16 17:30N 43°34' E 010°18'4 4.1
2015-Jun-16 16:33N 43°31' E 010°15'1414.5
2015-Jun-16 15:33N 43°31' E 009°55'1918.7
2015-Jun-16 14:33N 43°43' E 009°35'1918.7
2015-Jun-16 13:33N 43°54' E 009°15'1818.1
2015-Jun-16 12:33N 44°11' E 009°04'1514.7
2015-Jun-16 11:34N 44°24' E 008°55'1 1.1
2015-Jun-16 10:31N 44°24' E 008°53'0 0.0
2015-Jun-16 09:33N 44°24' E 008°53'0 0.1
2015-Jun-16 08:33N 44°24' E 008°53'0 0.0
2015-Jun-16 07:29N 44°24' E 008°53'0 0.0
2015-Jun-16 06:31N 44°24' E 008°53'0 0.0
2015-Jun-16 05:33N 44°24' E 008°53'0 0.0
2015-Jun-16 04:33N 44°24' E 008°53'0 0.0
2015-Jun-16 03:33N 44°24' E 008°53'0 0.0
2015-Jun-16 02:34N 44°24' E 008°53'0 0.0
2015-Jun-16 01:32N 44°24' E 008°53'0 0.0
2015-Jun-16 00:32N 44°24' E 008°53'0 0.0
2015-Jun-15 23:31N 44°24' E 008°53'0 0.0
2015-Jun-15 22:31N 44°24' E 008°53'0 0.0
2015-Jun-15 21:31N 44°24' E 008°53'0 0.0
2015-Jun-15 20:33N 44°24' E 008°53'0 0.0
2015-Jun-15 19:33N 44°24' E 008°53'0 0.0
2015-Jun-15 18:29N 44°24' E 008°53'0 0.0
2015-Jun-15 17:28N 44°24' E 008°53'0 0.0
2015-Jun-15 16:28N 44°24' E 008°53'0 0.0
2015-Jun-15 15:32N 44°24' E 008°53'  

Dump ship's entire track history